Kendall, WI (54638)

12:28 AM CST on December 10, 2016 (GMT -0600)
Buzzards Roost | | Change Station
Active Advisory: Winter Weather Advisory

Elev 1066 ft 43.79 °N, 90.37 °W | Updated 12 seconds ago

Overcast
Overcast
15.6 °F
Feels Like 16 °F
N
0.0
Wind Variable Wind from SSW
Gusts 0.0 mph

Today
High -- | Low -- °F
--% Chance of Precip.
Yesterday
High -- | Low -- °F
Precip. -- in
Pressure 30.52 in
Visibility 10.0 miles
Clouds Overcast 2000 ft
Windchill 16 °F
Dew Point 6 °F
Humidity 65%
Rainfall 0.00 in
Snow Depth Not available.
7:24 AM 4:24 PM
Waxing Gibbous, 81% visible
METAR KVOK 100558Z AUTO 28008KT 10SM -SN OVC020 M09/M12 A3046 RMK AO2 SNB01 SLP335 P0000 60000 T10901125 11087 21100 410421113 50002
Pressure 30.52 in
Visibility 10.0 miles
Clouds Overcast 2000 ft
Windchill 16 °F
Dew Point 6 °F
Humidity 65%
Rainfall 0.00 in
Snow Depth Not available.
7:24 AM 4:24 PM
Waxing Gibbous, 81% visible
METAR KVOK 100558Z AUTO 28008KT 10SM -SN OVC020 M09/M12 A3046 RMK AO2 SNB01 SLP335 P0000 60000 T10901125 11087 21100 410421113 50002

10-Day Weather Forecast

Almanac

Astronomy

Dec. 10, 2016 Rise Set
Actual Time
Civil Twilight
Nautical Twilight
Astronomical Twilight
Moon
Length of Visible Light
Length of Day
Tomorrow will be .
, % of the Moon is Illuminated

Today's Extremes

State Highs State Lows

Community

WunderPhotos

Upload Photos

1,956,527 photos uploaded!

WunderBlog® & News

Nearby

Air Quality

  Air Quality AQ Index Pollutant
Not available.

Snow Depth

Station Depth Elevation

Earthquake Activity

City Distance Mag. Time & Date
Minimum magnitude displayed is 2.5.

Coastal Water Temperatures

Place Temperature

Stations

Nearby Weather Stations

Station Location Temp. Windchill Dew Point Humidity Wind Precip. Elev Updated Type
                   

Watches & Warnings

Winter Weather Advisory
Issued: 7:56 PM CST Dec. 9, 2016 – National Weather Service

... Winter Weather Advisory remains in effect from 4 PM Saturday
to 9 PM CST Sunday...

* expect snow to develop late Saturday afternoon and then diminish
Sunday afternoon.

* The heaviest snowfall rates will occur between 4 am and noon
Sunday.

* Total snow accumulations of 5 to 8 inches are expected.

* Look for reduced visibilities at times.

* Plan on difficult driving conditions.

Precautionary/preparedness actions...

A Winter Weather Advisory for snow means periods of snow will
cause primarily travel difficulties. Be prepared for snow covered
roads and limited visibilities... and use caution while driving.
The latest Road conditions for the state you are calling from can
be obtained by calling 5 1 1.



Lawrence